createdAt,value
2023-03-11T00:01:42.537Z,5.90
2023-03-11T00:05:50.454Z,6.40
2023-03-11T00:09:58.445Z,5.70
2023-03-11T00:14:06.982Z,6.10
2023-03-11T00:18:15.933Z,5.40
2023-03-11T00:22:23.862Z,5.20
2023-03-11T00:26:32.065Z,4.50
2023-03-11T00:30:41.656Z,5.10
2023-03-11T00:34:49.759Z,5.20
2023-03-11T00:38:57.512Z,4.90
2023-03-11T00:43:05.638Z,5.40
2023-03-11T00:47:14.202Z,5.10
2023-03-11T00:51:21.988Z,5.20
2023-03-11T00:55:31.803Z,5.10
2023-03-11T00:59:41.045Z,6.30
2023-03-11T01:03:49.643Z,4.50
2023-03-11T01:07:56.954Z,3.60
2023-03-11T01:12:05.724Z,3.10
2023-03-11T01:16:13.539Z,2.90
2023-03-11T01:20:24.271Z,3.40
2023-03-11T01:24:32.439Z,2.80
2023-03-11T01:28:39.839Z,3.20
2023-03-11T01:32:47.912Z,3.10
2023-03-11T01:36:55.547Z,2.90
2023-03-11T01:41:03.649Z,3.50
2023-03-11T01:45:33.085Z,3.10
2023-03-11T01:49:42.239Z,3.00
2023-03-11T01:53:50.149Z,3.10
2023-03-11T01:57:58.612Z,3.80
2023-03-11T02:02:10.472Z,3.30
2023-03-11T02:06:21.271Z,2.90
2023-03-11T02:10:29.754Z,4.90
2023-03-11T02:14:38.349Z,4.40
2023-03-11T02:18:46.832Z,5.20
2023-03-11T02:22:57.400Z,4.90
2023-03-11T02:27:10.006Z,6.00
2023-03-11T02:31:18.862Z,3.90
2023-03-11T02:35:26.972Z,4.50
2023-03-11T02:39:37.343Z,3.30
2023-03-11T02:43:46.682Z,4.70
2023-03-11T02:47:55.655Z,4.90
2023-03-11T02:52:03.331Z,3.30
2023-03-11T02:56:11.373Z,2.10
2023-03-11T03:00:21.280Z,2.00
2023-03-11T03:04:28.944Z,9.40
2023-03-11T03:08:37.275Z,2.20
2023-03-11T03:12:46.241Z,2.20
2023-03-11T03:16:54.681Z,3.10
2023-03-11T03:21:02.856Z,2.60
2023-03-11T03:25:12.279Z,2.50
2023-03-11T03:29:21.137Z,2.70
2023-03-11T03:33:28.899Z,2.20
2023-03-11T03:37:38.370Z,1.50
2023-03-11T03:41:46.280Z,2.10
2023-03-11T03:46:01.230Z,1.90
2023-03-11T03:50:13.225Z,1.60
2023-03-11T03:54:21.146Z,2.50
2023-03-11T03:58:28.673Z,1.80
2023-03-11T04:02:36.199Z,2.40
2023-03-11T04:06:45.255Z,2.10
2023-03-11T04:11:00.570Z,2.30
2023-03-11T04:15:11.155Z,1.60
2023-03-11T04:19:19.585Z,1.30
2023-03-11T04:23:27.445Z,1.90
2023-03-11T04:27:35.309Z,2.20
2023-03-11T04:31:43.069Z,1.40
2023-03-11T04:35:51.713Z,2.60
2023-03-11T04:39:59.491Z,1.80
2023-03-11T04:44:07.683Z,2.40
2023-03-11T04:48:15.579Z,1.80
2023-03-11T04:52:23.251Z,1.60
2023-03-11T04:56:30.820Z,1.80
2023-03-11T05:00:38.754Z,2.30
2023-03-11T05:04:46.557Z,2.60
2023-03-11T05:08:54.304Z,4.10
2023-03-11T05:13:01.852Z,2.60
2023-03-11T05:17:13.800Z,2.10
2023-03-11T05:21:22.657Z,2.90
2023-03-11T05:25:30.283Z,3.10
2023-03-11T05:29:38.224Z,3.20
2023-03-11T05:33:45.845Z,4.00
2023-03-11T05:37:53.822Z,3.00
2023-03-11T05:42:03.891Z,2.90
2023-03-11T05:46:13.363Z,2.60
2023-03-11T05:50:22.111Z,3.60
2023-03-11T05:54:30.031Z,4.30
2023-03-11T05:58:38.015Z,4.00
2023-03-11T06:02:47.159Z,4.10
2023-03-11T06:06:56.422Z,3.80
2023-03-11T06:11:08.881Z,4.90
2023-03-11T06:15:16.860Z,4.70
2023-03-11T06:19:24.752Z,4.70
2023-03-11T06:23:33.235Z,5.30
2023-03-11T06:27:44.645Z,5.00
2023-03-11T06:31:52.570Z,4.60
2023-03-11T06:36:01.812Z,5.60
2023-03-11T06:40:12.677Z,4.30
2023-03-11T06:44:20.341Z,5.00
2023-03-11T06:48:30.030Z,5.30
2023-03-11T06:52:37.985Z,6.00
2023-03-11T06:56:45.570Z,4.00
2023-03-11T07:00:53.770Z,6.80
2023-03-11T07:05:01.872Z,4.10
2023-03-11T07:09:09.852Z,4.10
2023-03-11T07:13:18.204Z,5.60
2023-03-11T07:17:27.053Z,4.20
2023-03-11T07:21:35.684Z,5.00
2023-03-11T07:25:51.934Z,4.70
2023-03-11T07:29:59.805Z,4.80
2023-03-11T07:34:12.505Z,5.20
2023-03-11T07:38:21.173Z,4.30
2023-03-11T07:42:28.846Z,4.00
2023-03-11T07:46:36.838Z,4.90
2023-03-11T07:50:47.999Z,5.40
2023-03-11T07:54:55.482Z,5.80
2023-03-11T07:59:04.821Z,4.90
2023-03-11T08:03:13.068Z,4.90
2023-03-11T08:07:22.040Z,5.20
2023-03-11T08:11:30.257Z,5.00
2023-03-11T08:15:40.076Z,5.60
2023-03-11T08:19:48.347Z,5.30
2023-03-11T08:24:00.621Z,7.70
2023-03-11T08:28:10.036Z,5.30
2023-03-11T08:32:18.245Z,5.30
2023-03-11T08:36:26.646Z,5.30
2023-03-11T08:40:34.970Z,5.90
2023-03-11T08:44:42.706Z,5.30
2023-03-11T08:48:50.045Z,5.30
2023-03-11T08:53:00.894Z,5.60
2023-03-11T08:57:08.867Z,5.50
2023-03-11T09:01:16.667Z,5.80
2023-03-11T09:05:24.460Z,5.40
2023-03-11T09:09:31.801Z,4.90
2023-03-11T09:13:41.177Z,5.20
2023-03-11T09:17:49.221Z,5.50
2023-03-11T09:21:56.914Z,5.00
2023-03-11T09:26:05.669Z,5.20
2023-03-11T09:30:18.064Z,4.40
2023-03-11T09:34:26.352Z,4.70
2023-03-11T09:38:38.168Z,4.50
2023-03-11T09:42:55.472Z,3.10
2023-03-11T09:47:38.555Z,4.80
2023-03-11T09:51:50.726Z,6.60
2023-03-11T09:56:00.023Z,4.80
2023-03-11T10:00:14.342Z,5.80
2023-03-11T10:04:27.040Z,6.30
2023-03-11T10:08:40.792Z,5.70
2023-03-11T10:12:56.472Z,5.40
2023-03-11T10:17:16.038Z,6.60
2023-03-11T10:21:34.669Z,6.20
2023-03-11T10:25:51.352Z,6.70
2023-03-11T10:30:07.590Z,5.50
2023-03-11T10:34:19.414Z,5.80
2023-03-11T10:38:30.811Z,6.20
2023-03-11T10:42:39.520Z,6.80
2023-03-11T10:46:48.115Z,6.70
2023-03-11T10:51:03.120Z,6.70
2023-03-11T10:55:14.058Z,7.30
2023-03-11T10:59:28.490Z,6.60
2023-03-11T11:03:37.590Z,6.40
2023-03-11T11:07:46.063Z,6.40
2023-03-11T11:12:08.119Z,6.20
2023-03-11T11:16:23.244Z,6.50
2023-03-11T11:20:33.130Z,7.00
2023-03-11T11:24:47.069Z,6.00
2023-03-11T11:29:09.553Z,8.90
2023-03-11T11:33:29.800Z,6.60
2023-03-11T11:37:39.154Z,6.00
2023-03-11T11:41:52.459Z,7.30
2023-03-11T11:46:02.269Z,6.10
2023-03-11T11:50:18.292Z,7.00
2023-03-11T11:54:29.924Z,5.60
2023-03-11T11:58:38.585Z,7.50
2023-03-11T12:02:57.816Z,7.00
2023-03-11T12:07:16.763Z,6.20
2023-03-11T12:11:28.771Z,7.30
2023-03-11T12:15:41.173Z,5.90
2023-03-11T12:19:53.926Z,6.50
2023-03-11T12:24:16.032Z,5.40
2023-03-11T12:28:30.603Z,5.90
2023-03-11T12:32:41.870Z,5.40
2023-03-11T12:36:50.951Z,4.80
2023-03-11T12:41:04.311Z,4.70
2023-03-11T12:45:38.593Z,5.90
2023-03-11T12:49:47.118Z,6.80
2023-03-11T12:53:55.533Z,6.00
2023-03-11T12:58:26.368Z,5.70
2023-03-11T13:02:49.582Z,6.80
2023-03-11T13:07:13.866Z,5.90
2023-03-11T13:11:41.029Z,7.20
2023-03-11T13:15:48.980Z,6.00
2023-03-11T13:19:59.331Z,6.30
2023-03-11T13:24:36.587Z,5.10
2023-03-11T13:29:15.051Z,7.30
2023-03-11T13:33:30.592Z,6.60
2023-03-11T13:37:51.004Z,7.10
2023-03-11T13:41:59.415Z,7.00
2023-03-11T13:46:09.897Z,8.20
2023-03-11T13:50:22.828Z,6.20
2023-03-11T13:54:43.602Z,6.70
2023-03-11T13:58:51.202Z,7.00
2023-03-11T14:03:00.950Z,6.50
2023-03-11T14:07:21.600Z,6.90
2023-03-11T14:11:31.164Z,5.80
2023-03-11T14:15:47.204Z,7.00
2023-03-11T14:20:15.118Z,6.30
2023-03-11T14:24:26.163Z,7.20
2023-03-11T14:28:36.467Z,6.90
2023-03-11T14:32:44.284Z,7.00
2023-03-11T14:36:56.596Z,6.30
2023-03-11T14:41:06.980Z,6.40
2023-03-11T14:45:18.585Z,6.90
2023-03-11T14:49:26.886Z,7.30
2023-03-11T14:53:39.263Z,7.90
2023-03-11T14:57:51.074Z,7.60
2023-03-11T15:02:01.447Z,7.40
2023-03-11T15:06:14.569Z,7.70
2023-03-11T15:10:24.074Z,9.80
2023-03-11T15:14:35.213Z,7.30
2023-03-11T15:18:43.217Z,7.00
2023-03-11T15:23:02.218Z,6.40
2023-03-11T15:27:30.158Z,10.50
2023-03-11T15:31:40.150Z,7.40
2023-03-11T15:35:51.039Z,6.60
2023-03-11T15:40:12.658Z,6.10
2023-03-11T15:44:29.155Z,5.80
2023-03-11T15:48:37.210Z,7.20
2023-03-11T15:52:44.954Z,7.10
2023-03-11T15:56:52.925Z,6.60
2023-03-11T16:01:00.769Z,8.10
2023-03-11T16:05:16.264Z,7.70
2023-03-11T16:09:28.357Z,8.50
2023-03-11T16:13:36.195Z,8.60
2023-03-11T16:17:49.803Z,7.10
2023-03-11T16:21:58.876Z,9.70
2023-03-11T16:26:08.512Z,8.00
2023-03-11T16:30:17.762Z,9.90
2023-03-11T16:34:27.029Z,8.10
2023-03-11T16:38:37.788Z,6.30
2023-03-11T16:42:46.409Z,7.50
2023-03-11T16:46:54.347Z,9.40
2023-03-11T16:51:03.198Z,8.40
2023-03-11T16:55:11.971Z,8.00
2023-03-11T16:59:21.020Z,9.70
2023-03-11T17:03:34.480Z,8.70
2023-03-11T17:07:48.998Z,8.30
2023-03-11T17:11:56.597Z,8.30
2023-03-11T17:16:05.141Z,8.90
2023-03-11T17:20:14.736Z,13.70
2023-03-11T17:24:22.323Z,12.00
2023-03-11T17:28:30.170Z,9.20
2023-03-11T17:32:38.135Z,8.80
2023-03-11T17:36:45.967Z,7.40
2023-03-11T17:40:53.940Z,7.70
2023-03-11T17:45:01.757Z,8.10
2023-03-11T17:49:11.423Z,6.90
2023-03-11T17:53:19.151Z,7.80
2023-03-11T17:57:26.904Z,9.50
2023-03-11T18:01:36.383Z,10.30
2023-03-11T18:05:44.548Z,10.40
2023-03-11T18:09:54.028Z,10.40
2023-03-11T18:14:02.229Z,11.20
2023-03-11T18:18:10.457Z,10.80
2023-03-11T18:22:18.902Z,10.80
2023-03-11T18:26:28.838Z,12.80
2023-03-11T18:30:39.842Z,10.40
2023-03-11T18:34:50.634Z,11.20
2023-03-11T18:38:59.487Z,8.80
2023-03-11T18:43:07.991Z,11.90
2023-03-11T18:47:16.348Z,13.90
2023-03-11T18:51:24.943Z,11.70
2023-03-11T18:55:32.157Z,9.80
2023-03-11T18:59:40.090Z,8.20
2023-03-11T19:03:50.480Z,11.00
2023-03-11T19:07:58.635Z,9.80
2023-03-11T19:12:06.640Z,12.90
2023-03-11T19:16:15.555Z,13.80
2023-03-11T19:20:27.275Z,13.60
2023-03-11T19:24:35.498Z,12.80
2023-03-11T19:28:43.379Z,12.60
2023-03-11T19:32:53.258Z,12.40
2023-03-11T19:37:01.101Z,13.00
2023-03-11T19:41:10.224Z,15.50
2023-03-11T19:45:18.394Z,13.20
2023-03-11T19:49:26.211Z,13.10
2023-03-11T19:53:34.475Z,13.00
2023-03-11T19:57:42.438Z,10.50
2023-03-11T20:01:50.915Z,10.40
2023-03-11T20:06:05.349Z,12.00
2023-03-11T20:10:17.412Z,10.10
2023-03-11T20:14:25.753Z,14.50
2023-03-11T20:18:34.897Z,13.40
2023-03-11T20:22:43.340Z,16.00
2023-03-11T20:26:51.792Z,12.40
2023-03-11T20:30:59.761Z,11.60
2023-03-11T20:35:10.186Z,13.00
2023-03-11T20:39:19.175Z,12.90
2023-03-11T20:43:26.836Z,10.60
2023-03-11T20:47:34.451Z,12.20
2023-03-11T20:51:44.117Z,17.80
2023-03-11T20:55:52.298Z,16.10
2023-03-11T21:00:01.000Z,15.20
2023-03-11T21:04:09.576Z,16.30
2023-03-11T21:08:18.832Z,14.90
2023-03-11T21:12:29.229Z,11.80
2023-03-11T21:16:40.328Z,12.70
2023-03-11T21:20:48.245Z,15.60
2023-03-11T21:24:57.167Z,14.50
2023-03-11T21:29:05.654Z,16.00
2023-03-11T21:33:14.439Z,17.30
2023-03-11T21:37:22.565Z,16.60
2023-03-11T21:41:31.353Z,16.10
2023-03-11T21:45:41.072Z,14.80
2023-03-11T21:49:49.593Z,14.50
2023-03-11T21:53:57.972Z,13.10
2023-03-11T21:58:06.098Z,12.40
2023-03-11T22:02:17.817Z,13.40
2023-03-11T22:06:26.034Z,13.10
2023-03-11T22:10:35.575Z,16.10
2023-03-11T22:14:43.159Z,22.50
2023-03-11T22:18:51.410Z,18.40
2023-03-11T22:22:59.484Z,17.00
2023-03-11T22:27:07.014Z,14.40
2023-03-11T22:31:16.996Z,15.50
2023-03-11T22:35:25.763Z,13.70
2023-03-11T22:39:33.561Z,14.00
2023-03-11T22:43:42.016Z,14.90
2023-03-11T22:47:50.436Z,20.80
2023-03-11T22:51:59.650Z,17.90
2023-03-11T22:56:12.883Z,16.20
2023-03-11T23:00:22.958Z,12.20
2023-03-11T23:04:30.904Z,10.80
2023-03-11T23:08:39.426Z,12.10
2023-03-11T23:12:48.351Z,13.10
2023-03-11T23:16:56.334Z,12.90
2023-03-11T23:21:03.933Z,10.00
2023-03-11T23:25:16.085Z,14.10
2023-03-11T23:29:23.884Z,17.30
2023-03-11T23:33:31.559Z,13.20
2023-03-11T23:37:39.304Z,12.40
2023-03-11T23:41:46.873Z,11.50
2023-03-11T23:45:55.149Z,10.20
2023-03-11T23:50:02.916Z,10.90
2023-03-11T23:54:10.597Z,8.90
2023-03-11T23:58:19.112Z,9.80
